Sunday, November 23, 2014
02:14 UTC
  |  Log In   |  Register Free
Airport Search:

Alpena County Regional Airport
(KAPN)

FAA data valid effective November 13, 2014 - January 08, 2015 (unless otherwise noted).

 
 
 
 
 
 
 
 
 
 
 
 
 
 

Current Aviation Weather for Alpena County Regional Airport (KAPN)

The most recent METAR observation for KAPN was updated at: 0118
METAR Summary (Translated METAR)
KAPN
230054Z AUTO 20008KT 7SM OVC008 03/03 A2980 RMK AO2 SLP100 T00330028
KPZQ
230115Z AUTO 22003KT 4SM BR OVC005 04/03 A2980 RMK AO2 T00350034
(22.5 nm NW from KAPN)
KOSC
230113Z AUTO 20007KT 1 1/4SM DZ OVC003 03/03 A2984 RMK AO2 T00310031
(38.3 nm SE from KAPN)
TAF Summary (Translated TAF)
KAPN
221737Z 2218/2318 22009KT P6SM OVC012 WS014/24038KT FM230000 20004KT 6SM BR OVC010 WS014/26028KT FM230900 17003KT 3SM BR OVC006 WS010/23030KT FM231500 18007KT 3SM -RA BR OVC012 WS009/22035KT
  Airport Weather Conditions for KAPN

 Current Weather at APN
38° F
Overcast
South winds at 9.2 mph
APN NOAA Radar

Pressure: 29.80 in
Humidity: 97%
Wind: South at 9.2 MPH (8 KT)
Dew Point: 37.0°F
Visibility: 7.00 mi


Airport Weather Forecast for KAPN

Translated METAR and TAF for KAPN
Translated METAR for KAPN (0209 UTC 23 November 2014)
found at http://aviationweather.gov/adds/metars/
 
METAR text: KAPN 230154Z AUTO 20007KT 2SM BR OVC003 03/03 A2982 RMK AO2 SLP103 T00330033
Conditions at: KAPN (ALPENA , MI, US) observed 0154 UTC 23 November 2014
Temperature: 3.3°C (38°F)
Dewpoint: 3.3°C (38°F) [RH = 100%]
Pressure (altimeter): 29.82 inches Hg (1009.9 mb)
[Sea-level pressure: 1010.3 mb]
Winds: from the SSW (200 degrees) at 8 MPH (7 knots; 3.6 m/s)
Visibility: 2.00 miles (3.22 km)
Ceiling: 300 feet AGL
Clouds: overcast cloud deck at 300 feet AGL
Weather: BR  (mist)
Translated TAF for KAPN
Forecast for: KAPN (ALPENA , MI, US)
TAF Text: KAPN 230137Z 2302/2324 21005KT 3SM BR OVC005 WS014/25028KT
Forecast period: 0200 to 0500 UTC 23 November 2014
Forecast type: FROM: standard forecast or significant change
Winds: from the SSW (210 degrees) at 6 MPH (5 knots; 2.6 m/s)
Visibility: 3 miles (5 km)
Ceiling: 500 feet AGL
Clouds: overcast cloud deck at 500 feet AGL
Wind shear: at 1400 feet ( 427 m) AGL, from the WSW (250 degrees) at 32 MPH (28 knots; 14.6 m/s)
Weather: BR  (mist)
TAF Text: FM230500 19004KT 4SM BR OVC005
Forecast period: 0500 to 1600 UTC 23 November 2014
Forecast type: FROM: standard forecast or significant change
Winds: from the S (190 degrees) at 5 MPH (4 knots; 2.1 m/s)
Visibility: 4 miles (6 km)
Ceiling: 500 feet AGL
Clouds: overcast cloud deck at 500 feet AGL
Weather: BR  (mist)
TAF Text: FM231600 18008KT 5SM -RA BR OVC005 WS020/20032KT
Forecast period: 1600 UTC 23 November 2014 to 0000 UTC 24 November 2014
Forecast type: FROM: standard forecast or significant change
Winds: from the S (180 degrees) at 9 MPH (8 knots; 4.2 m/s)
Visibility: 5 miles (8 km)
Ceiling: 500 feet AGL
Clouds: overcast cloud deck at 500 feet AGL
Wind shear: at 2000 feet ( 610 m) AGL, from the SSW (200 degrees) at 37 MPH (32 knots; 16.6 m/s)
Weather: -RA BR  (light rain, mist)

Find All Airport Services Find A Hotel Find A Rental Car Find A Golf Course Find A Restaurant $100 Hamburger



FBO's on the Field
FBO Company Facility Photos Services Transportation Aviation Fuel Prices: Prices include tax
Catering Weather Repair Courtesy Rental Type 100LL JetA JetA+ MOGAS 8087
 
Aviation Express Inc.

Currently rated 1.2 by 1 person
FS:Shell
Last Updated: Nov-19
Login to update fuel prices
SS:
Contact Aviation Express Inc.More FBO Information
 
Aviation North

This FBO has not yet been rated
FS:Avfuel
Last Updated: Nov-10
Login to update fuel prices
SS:
Contact Aviation NorthMore FBO Information
 
Add another FBO Facility Photos Catering Weather Repair Courtesy Rental Type 100LL JetA JetA+ MOGAS 8087
Services Transportation Aviation Fuel Prices: Prices include tax


model-print
model-print
model-print
model-print